SULAYMANIYAH INTERNATIONAL AIRPORT
  • SulyAir
  • SulyAir
1 1
Arrival

ArrivalsMore >>

Departure

DeparturesMore >>

TAF

TAF ORSU 081700Z 0818/0918 32008KT CAVOK
BECMG 0820/0822 03012KT
BECMG 0909/0911 27010KT=

METARs

METAR ORSU 081700Z 32012KT CAVOK 33/05 Q1003=